CYNL

METAR CYNL 232300Z AUTO 16010G15KT CLR 05/M11 A2999 RMK AO1 SLP179
METAR
LOCATION
CYNL
DATE - TIME
232300Z
WIND
160 TRUE @ 10 KNOTS GUSTS 15 KNOTS
VISIBILITY
RUNWAY VISUAL RANGE
NOT REPORTED
WEATHER
CLOUDINESS
CLR
TEMP / DEWPOINT
5 ºC / -11 ºC
ALTIMETER
29.99 in. Hg
RECENT WEATHER
NOT REPORTED
WIND SHEAR
NOT REPORTED
REMARKS
RMK AO1 SLP179
SEA LEVEL PRESSURE: hPa

CYNL

METAR CYNL 232200Z AUTO 17012G18KT CLR 06/M10 A3001 RMK AO1 PRESFR SLP184
METAR
LOCATION
CYNL
DATE - TIME
232200Z
WIND
170 TRUE @ 12 KNOTS GUSTS 18 KNOTS
VISIBILITY
RUNWAY VISUAL RANGE
NOT REPORTED
WEATHER
CLOUDINESS
CLR
TEMP / DEWPOINT
6 ºC / -10 ºC
ALTIMETER
30.01 in. Hg
RECENT WEATHER
NOT REPORTED
WIND SHEAR
NOT REPORTED
REMARKS
RMK AO1 PRESFR SLP184
SEA LEVEL PRESSURE: hPa

CYNL

METAR CYNL 232100Z AUTO 19011KT CLR 07/M08 A3003 RMK AO1 PRESFR SLP192
METAR
LOCATION
CYNL
DATE - TIME
232100Z
WIND
190 TRUE @ 11 KNOTS
VISIBILITY
RUNWAY VISUAL RANGE
NOT REPORTED
WEATHER
CLOUDINESS
CLR
TEMP / DEWPOINT
7 ºC / -8 ºC
ALTIMETER
30.03 in. Hg
RECENT WEATHER
NOT REPORTED
WIND SHEAR
NOT REPORTED
REMARKS
RMK AO1 PRESFR SLP192
SEA LEVEL PRESSURE: hPa

Your time UTC time
 
 
Weather data provided by AXYS Technologies Inc., www.axystechnologies.com
 
Station History